Time;durP1;ratioP1;P1;durP2;ratioP2;P2;SDS_P1;SDS_P2;PMS_P1;PMS_P2;Temp;Humidity;BMP_temperature;BMP_pressure;BME280_temperature;BME280_humidity;BME280_pressure;Samples;Min_cycle;Max_cycle;Signal;HPM_P1;HPM_P2
2022/09/28 00:01:51;;;;;;;;;;;;;;;19.16;73.60;95901.08;626132;226;66073;-80
2022/09/28 00:04:19;;;;;;;;;;;;;;;19.16;73.51;95885.09;626131;226;65494;-80
2022/09/28 00:06:47;;;;;;;;;;;;;;;19.15;73.71;95873.66;626177;226;65294;-80
2022/09/28 00:09:16;;;;;;;;;;;;;;;19.15;73.46;95876.33;626098;226;62749;-79
2022/09/28 00:11:44;;;;;;;;;;;;;;;19.15;73.61;95873.66;626126;226;64199;-80
2022/09/28 00:14:12;;;;;;;;;;;;;;;19.15;73.65;95871.00;626028;226;66467;-79
2022/09/28 00:16:42;;;;;;;;;;;;;;;19.15;73.47;95884.31;625143;226;65161;-79
2022/09/28 00:19:10;;;;;;;;;;;;;;;19.16;73.50;95893.09;624906;227;65422;-79
2022/09/28 00:21:39;;;;;;;;;;;;;;;19.16;73.77;95890.43;624912;227;63108;-79
2022/09/28 00:24:18;;;;;;;;;;;;;;;19.15;73.59;95889.64;624944;227;66079;-79
2022/09/28 00:26:48;;;;;;;;;;;;;;;19.16;73.43;95895.75;624946;227;62993;-79
2022/09/28 00:29:17;;;;;;;;;;;;;;;19.15;73.71;95900.30;624949;227;65701;-79
2022/09/28 00:31:45;;;;;;;;;;;;;;;19.16;73.49;95885.89;624941;227;62679;-79
2022/09/28 00:34:12;;;;;;;;;;;;;;;19.15;73.80;95897.62;624893;227;65175;-79
2022/09/28 00:36:41;;;;;;;;;;;;;;;19.14;73.54;95893.36;624903;227;64828;-79
2022/09/28 00:39:10;;;;;;;;;;;;;;;19.14;73.58;95898.69;624933;227;64917;-79
2022/09/28 00:41:38;;;;;;;;;;;;;;;19.15;73.47;95886.98;624936;227;62822;-79
2022/09/28 00:44:26;;;;;;;;;;;;;;;19.16;73.68;95890.43;624926;227;64985;-79
2022/09/28 00:47:01;;;;;;;;;;;;;;;19.15;73.57;95894.15;624914;227;62650;-79
2022/09/28 00:49:31;;;;;;;;;;;;;;;19.15;73.49;95894.15;624926;226;65409;-79
2022/09/28 00:51:59;;;;;;;;;;;;;;;19.14;73.44;95882.70;624883;226;62953;-79
2022/09/28 00:54:27;;;;;;;;;;;;;;;19.14;73.39;95888.03;624983;227;65064;-79
2022/09/28 00:56:55;;;;;;;;;;;;;;;19.15;73.55;95878.17;624923;227;65466;-79
2022/09/28 00:59:23;;;;;;;;;;;;;;;19.15;73.42;95878.98;624884;227;65078;-79
2022/09/28 01:01:51;;;;;;;;;;;;;;;19.15;73.53;95871.00;624924;227;64946;-79
2022/09/28 01:04:19;;;;;;;;;;;;;;;19.14;73.36;95869.39;624923;227;65308;-79
2022/09/28 01:06:46;;;;;;;;;;;;;;;19.14;73.35;95872.06;624965;227;65060;-79
2022/09/28 01:09:16;;;;;;;;;;;;;;;19.14;73.44;95877.38;624927;227;62449;-79
2022/09/28 01:11:44;;;;;;;;;;;;;;;19.15;73.22;95886.98;624901;227;65604;-80
2022/09/28 01:14:13;;;;;;;;;;;;;;;19.15;73.51;95878.98;624945;227;62918;-80
2022/09/28 01:16:42;;;;;;;;;;;;;;;19.15;73.37;95886.16;624859;226;63888;-80
2022/09/28 01:19:13;;;;;;;;;;;;;;;19.15;73.42;95881.66;619633;227;46641;-79
2022/09/28 01:21:51;;;;;;;;;;;;;;;19.15;73.36;95878.98;624745;226;64785;-80
2022/09/28 01:24:30;;;;;;;;;;;;;;;19.15;73.34;95878.98;624951;227;63033;-80
2022/09/28 01:27:11;;;;;;;;;;;;;;;19.15;73.36;95876.33;624994;227;63045;-80
2022/09/28 01:29:40;;;;;;;;;;;;;;;19.15;73.37;95880.83;624996;227;65690;-80
2022/09/28 01:32:15;;;;;;;;;;;;;;;19.15;73.18;95878.98;624924;226;65033;-80
2022/09/28 01:34:44;;;;;;;;;;;;;;;19.14;73.27;95880.05;625004;227;62596;-78
2022/09/28 01:37:14;;;;;;;;;;;;;;;19.14;73.16;95881.92;624916;226;65019;-78
2022/09/28 01:39:43;;;;;;;;;;;;;;;19.14;73.40;95877.38;624960;227;62822;-78
2022/09/28 01:42:12;;;;;;;;;;;;;;;19.15;73.28;95883.50;624891;226;65376;-78
2022/09/28 01:44:41;;;;;;;;;;;;;;;19.15;73.31;95881.66;624929;227;65076;-78
2022/09/28 01:47:11;;;;;;;;;;;;;;;19.14;73.29;95882.70;624904;227;65719;-78
2022/09/28 01:49:43;;;;;;;;;;;;;;;19.14;73.12;95884.59;624943;227;63625;-78
2022/09/28 01:52:21;;;;;;;;;;;;;;;19.14;73.10;95888.03;624977;227;65014;-78
2022/09/28 01:54:50;;;;;;;;;;;;;;;19.14;73.09;95889.91;624917;227;64859;-78
2022/09/28 01:57:37;;;;;;;;;;;;;;;19.13;73.09;95885.67;624920;227;63291;-78
2022/09/28 02:00:06;;;;;;;;;;;;;;;19.14;73.17;95884.59;624927;226;62629;-78
2022/09/28 02:02:48;;;;;;;;;;;;;;;19.13;73.10;95891.79;624940;227;65635;-78
2022/09/28 02:05:19;;;;;;;;;;;;;;;19.14;73.15;95892.58;624965;226;45267;-78
2022/09/28 02:07:58;;;;;;;;;;;;;;;19.13;73.24;95904.31;624954;227;64952;-78
2022/09/28 02:10:27;;;;;;;;;;;;;;;19.14;73.09;95911.22;625028;227;62923;-78
2022/09/28 02:12:56;;;;;;;;;;;;;;;19.13;73.15;95913.09;625002;227;62669;-78
2022/09/28 02:15:25;;;;;;;;;;;;;;;19.14;73.17;95905.89;625106;226;62676;-78
2022/09/28 02:17:54;;;;;;;;;;;;;;;19.13;73.09;95913.09;626103;226;64885;-78
2022/09/28 02:20:23;;;;;;;;;;;;;;;19.13;73.09;95921.08;626073;226;64895;-78
2022/09/28 02:22:52;;;;;;;;;;;;;;;19.14;73.12;95914.67;626154;225;64921;-78
2022/09/28 02:25:30;;;;;;;;;;;;;;;19.13;73.01;95915.76;626147;226;62731;-78
2022/09/28 02:27:59;;;;;;;;;;;;;;;19.13;73.17;95915.76;626011;226;65613;-78
2022/09/28 02:30:28;;;;;;;;;;;;;;;19.13;73.18;95901.66;626126;226;64783;-78
2022/09/28 02:32:57;;;;;;;;;;;;;;;19.13;73.03;95899.78;626066;226;62664;-78
2022/09/28 02:35:25;;;;;;;;;;;;;;;19.12;73.07;95898.17;626102;226;62777;-79
2022/09/28 02:37:54;;;;;;;;;;;;;;;19.13;73.11;95896.33;626135;226;64765;-78
2022/09/28 02:40:23;;;;;;;;;;;;;;;19.12;73.19;95898.17;626080;226;62981;-78
2022/09/28 02:43:01;;;;;;;;;;;;;;;19.14;73.08;95895.23;626096;226;66364;-78
2022/09/28 02:45:42;;;;;;;;;;;;;;;19.13;73.28;95907.77;625986;225;65591;-79
2022/09/28 02:48:18;;;;;;;;;;;;;;;19.13;73.16;95913.09;626104;226;62372;-78
2022/09/28 02:50:50;;;;;;;;;;;;;;;19.13;73.13;95913.09;626140;226;62751;-79
2022/09/28 02:53:33;;;;;;;;;;;;;;;19.12;73.05;95919.48;626232;225;48838;-80
2022/09/28 02:56:05;;;;;;;;;;;;;;;19.12;73.26;95900.84;626182;226;62964;-79
2022/09/28 02:58:37;;;;;;;;;;;;;;;19.12;73.03;95902.72;626166;226;65503;-80
2022/09/28 03:01:08;;;;;;;;;;;;;;;19.12;73.02;95908.83;626206;226;65094;-79
2022/09/28 03:03:37;;;;;;;;;;;;;;;19.12;73.04;95911.49;623840;226;62538;-79
2022/09/28 03:06:13;;;;;;;;;;;;;;;19.12;73.11;95918.69;626080;226;65579;-79
2022/09/28 03:08:47;;;;;;;;;;;;;;;19.12;73.03;95916.81;625941;226;41940;-79
2022/09/28 03:11:16;;;;;;;;;;;;;;;19.11;73.02;95920.56;625806;226;65628;-79
2022/09/28 03:13:45;;;;;;;;;;;;;;;19.11;73.12;95923.23;625977;226;44327;-79
2022/09/28 03:16:15;;;;;;;;;;;;;;;19.12;73.11;95930.13;626031;226;62602;-79
2022/09/28 03:18:43;;;;;;;;;;;;;;;19.12;72.91;95924.02;626023;226;65068;-79
2022/09/28 03:21:11;;;;;;;;;;;;;;;19.12;73.04;95926.69;626055;226;62918;-79
2022/09/28 03:23:39;;;;;;;;;;;;;;;19.11;73.03;95931.22;626145;226;62838;-79
2022/09/28 03:26:13;;;;;;;;;;;;;;;19.12;72.95;95930.13;625922;226;64879;-79
2022/09/28 03:28:41;;;;;;;;;;;;;;;19.12;72.99;95932.80;625774;226;64760;-79
2022/09/28 03:31:10;;;;;;;;;;;;;;;19.12;72.95;95938.13;625955;226;45565;-79
2022/09/28 03:33:38;;;;;;;;;;;;;;;19.12;72.95;95943.45;625949;226;65648;-79
2022/09/28 03:36:07;;;;;;;;;;;;;;;19.12;73.00;95942.66;625911;226;64818;-80
2022/09/28 03:38:35;;;;;;;;;;;;;;;19.12;73.01;95940.78;625975;226;64884;-79
2022/09/28 03:41:08;;;;;;;;;;;;;;;19.12;73.02;95940.78;625931;226;64879;-80
2022/09/28 03:43:34;;;;;;;;;;;;;;;19.12;72.94;95943.45;625931;226;46607;-79
2022/09/28 03:46:02;;;;;;;;;;;;;;;19.13;72.77;95944.27;625927;226;64716;-79
2022/09/28 03:48:33;;;;;;;;;;;;;;;19.12;72.80;95943.45;626006;225;47253;-79
2022/09/28 03:51:02;;;;;;;;;;;;;;;19.12;72.72;95940.00;625952;226;67079;-79
2022/09/28 03:53:29;;;;;;;;;;;;;;;19.12;72.74;95945.32;625972;226;66590;-79
2022/09/28 03:56:03;;;;;;;;;;;;;;;19.12;72.95;95945.32;625920;226;65459;-79
2022/09/28 03:58:31;;;;;;;;;;;;;;;19.11;72.84;95951.73;625924;226;64766;-78
2022/09/28 04:01:03;;;;;;;;;;;;;;;19.12;72.79;95955.98;625886;226;67008;-78
2022/09/28 04:03:31;;;;;;;;;;;;;;;19.12;72.92;95956.77;625893;226;62877;-79
2022/09/28 04:05:59;;;;;;;;;;;;;;;19.11;72.90;95963.17;625920;226;67552;-79
2022/09/28 04:08:27;;;;;;;;;;;;;;;19.12;72.85;95966.63;625911;226;66838;-79
2022/09/28 04:10:57;;;;;;;;;;;;;;;19.11;72.70;95967.72;625901;226;65100;-79
2022/09/28 04:13:25;;;;;;;;;;;;;;;19.11;72.67;95968.50;625944;226;64861;-79
2022/09/28 04:15:54;;;;;;;;;;;;;;;19.11;72.90;95965.84;625883;226;66903;-79
2022/09/28 04:18:22;;;;;;;;;;;;;;;19.11;72.76;95965.05;625960;226;64987;-79
2022/09/28 04:21:09;;;;;;;;;;;;;;;19.11;72.72;95963.17;626041;226;41606;-78
2022/09/28 04:23:44;;;;;;;;;;;;;;;19.12;72.70;95969.29;625582;226;48561;-72
2022/09/28 04:26:19;;;;;;;;;;;;;;;19.11;72.78;95971.16;625902;226;64922;-72
2022/09/28 04:31:29;;;;;;;;;;;;;;;19.10;72.77;95960.78;625971;226;64769;-72
2022/09/28 04:33:58;;;;;;;;;;;;;;;19.10;72.80;95966.92;625955;224;65123;-73
2022/09/28 04:36:25;;;;;;;;;;;;;;;19.10;72.75;95974.92;625895;226;67351;-73
2022/09/28 04:38:53;;;;;;;;;;;;;;;19.11;72.78;95984.48;625897;226;66906;-72
2022/09/28 04:41:22;;;;;;;;;;;;;;;19.10;72.80;95979.42;625945;225;43636;-72
2022/09/28 04:43:50;;;;;;;;;;;;;;;19.11;72.87;95984.48;625927;226;67021;-72
2022/09/28 04:46:18;;;;;;;;;;;;;;;19.11;72.78;95989.02;625946;226;67007;-72
2022/09/28 04:48:51;;;;;;;;;;;;;;;19.11;72.70;95989.80;625750;226;43634;-72
2022/09/28 04:51:36;;;;;;;;;;;;;;;19.10;72.86;95990.89;625994;226;37838;-71
2022/09/28 04:54:04;;;;;;;;;;;;;;;19.11;72.78;95997.01;625917;226;66838;-71
2022/09/28 04:56:32;;;;;;;;;;;;;;;19.10;72.75;96003.39;625889;226;62738;-71
2022/09/28 04:58:59;;;;;;;;;;;;;;;19.10;72.77;95995.41;625899;226;64859;-73
2022/09/28 05:01:29;;;;;;;;;;;;;;;19.10;72.91;95996.22;626028;225;45598;-73
2022/09/28 05:04:01;;;;;;;;;;;;;;;19.10;72.77;95985.57;625993;225;44184;-73
2022/09/28 05:06:40;;;;;;;;;;;;;;;19.10;72.74;95990.89;625201;226;48210;-72
2022/09/28 05:09:10;;;;;;;;;;;;;;;19.10;72.77;95988.23;625881;224;67106;-73
2022/09/28 05:11:38;;;;;;;;;;;;;;;19.09;72.75;95986.63;625787;226;62747;-71
2022/09/28 05:14:07;;;;;;;;;;;;;;;19.11;73.35;95978.37;625595;226;45668;-71
2022/09/28 05:16:34;;;;;;;;;;;;;;;19.11;73.34;95981.03;624987;226;67297;-71
2022/09/28 05:19:20;;;;;;;;;;;;;;;19.12;73.23;95987.93;624898;227;37516;-71
2022/09/28 05:21:48;;;;;;;;;;;;;;;19.10;73.44;95982.91;624439;227;67569;-71
2022/09/28 05:24:16;;;;;;;;;;;;;;;19.10;73.36;95987.41;624756;227;64111;-71
2022/09/28 05:26:45;;;;;;;;;;;;;;;19.11;73.39;95978.37;624696;226;45199;-71
2022/09/28 05:29:14;;;;;;;;;;;;;;;19.10;73.58;95980.24;624800;226;67165;-71
2022/09/28 05:31:46;;;;;;;;;;;;;;;19.12;73.59;95990.59;624841;226;46835;-71
2022/09/28 05:34:32;;;;;;;;;;;;;;;19.11;73.65;95987.14;624917;227;37378;-71
2022/09/28 05:37:00;;;;;;;;;;;;;;;19.10;73.72;95982.91;624793;227;66776;-71
2022/09/28 05:39:27;;;;;;;;;;;;;;;19.11;73.84;95981.03;624753;227;64777;-71
2022/09/28 05:41:56;;;;;;;;;;;;;;;19.11;73.77;95983.70;624649;227;62727;-73
2022/09/28 05:44:24;;;;;;;;;;;;;;;19.11;73.93;95983.70;624787;227;64929;-75
2022/09/28 05:46:53;;;;;;;;;;;;;;;19.11;73.78;95978.37;624718;227;67404;-71
2022/09/28 05:49:21;;;;;;;;;;;;;;;19.11;73.93;95973.05;624777;227;64901;-69
2022/09/28 05:51:48;;;;;;;;;;;;;;;19.08;73.64;95971.73;624763;227;66991;-70
2022/09/28 05:54:16;;;;;;;;;;;;;;;19.10;73.67;95979.42;624784;227;64841;-70
2022/09/28 05:56:45;;;;;;;;;;;;;;;19.09;73.63;95973.31;624838;226;46882;-70
2022/09/28 05:59:15;;;;;;;;;;;;;;;19.10;73.60;95976.77;624693;227;67641;-70
2022/09/28 06:01:43;;;;;;;;;;;;;;;19.09;73.52;95975.97;624768;227;67371;-71
2022/09/28 06:04:13;;;;;;;;;;;;;;;19.09;73.51;95978.64;624757;227;62332;-70
2022/09/28 06:06:42;;;;;;;;;;;;;;;19.08;73.36;95974.40;624752;227;64507;-70
2022/09/28 06:09:10;;;;;;;;;;;;;;;19.09;73.34;95973.31;624762;227;67381;-74
2022/09/28 06:11:42;;;;;;;;;;;;;;;19.08;73.35;95975.19;624243;227;44970;-72
2022/09/28 06:14:16;;;;;;;;;;;;;;;19.09;74.68;95983.97;619484;226;48198;-70
2022/09/28 06:16:41;;;;;;;;;;;;;;;19.06;73.66;95984.53;623726;226;67646;-70
2022/09/28 06:19:11;;;;;;;;;;;;;;;19.06;73.45;95979.20;618649;229;63003;-71
2022/09/28 06:21:58;;;;;;;;;;;;;;;19.07;73.08;95980.81;618254;229;45375;-71
2022/09/28 06:24:26;;;;;;;;;;;;;;;19.08;72.93;95979.72;618665;229;65063;-70
2022/09/28 06:26:53;;;;;;;;;;;;;;;19.09;73.03;95975.97;618671;229;63002;-69
2022/09/28 06:29:21;;;;;;;;;;;;;;;19.09;73.23;95973.31;618727;229;66711;-70
2022/09/28 06:31:50;;;;;;;;;;;;;;;19.11;73.10;95981.82;618733;229;67015;-69
2022/09/28 06:34:20;;;;;;;;;;;;;;;19.10;73.05;95977.58;618651;229;45135;-68
2022/09/28 06:36:48;;;;;;;;;;;;;;;19.11;72.82;95968.50;618681;229;63533;-68
2022/09/28 06:39:16;;;;;;;;;;;;;;;19.11;72.76;95971.16;618809;229;66700;-69
2022/09/28 06:41:43;;;;;;;;;;;;;;;19.12;72.95;95969.29;622807;226;62589;-68
2022/09/28 06:44:13;;;;;;;;;;;;;;;19.12;72.85;95970.08;625885;226;43421;-68
2022/09/28 06:46:58;;;;;;;;;;;;;;;19.13;72.82;95969.02;625981;226;37600;-68
2022/09/28 06:49:30;;;;;;;;;;;;;;;19.13;72.84;95969.02;625572;225;46898;-68
2022/09/28 06:52:11;;;;;;;;;;;;;;;19.14;72.79;95970.59;625902;226;46552;-72
2022/09/28 06:54:49;;;;;;;;;;;;;;;19.13;72.75;95971.69;625452;226;44814;-72
2022/09/28 06:57:25;;;;;;;;;;;;;;;19.13;72.59;95968.23;625740;226;43856;-76
2022/09/28 06:59:52;;;;;;;;;;;;;;;19.13;72.63;95966.36;625784;226;64974;-71
2022/09/28 07:02:21;;;;;;;;;;;;;;;19.13;72.70;95969.02;625874;226;64841;-72
2022/09/28 07:04:51;;;;;;;;;;;;;;;19.13;72.99;95966.36;625213;226;44245;-70
2022/09/28 07:07:37;;;;;;;;;;;;;;;19.14;73.43;95967.14;625985;226;39433;-70
2022/09/28 07:10:12;;;;;;;;;;;;;;;19.13;73.47;95966.36;625643;226;45654;-70
2022/09/28 07:13:03;;;;;;;;;;;;;;;19.13;73.34;95969.02;610048;231;46030;-69
2022/09/28 07:15:36;;;;;;;;;;;;;;;19.13;73.27;95966.36;611168;230;47336;-69
2022/09/28 07:18:05;;;;;;;;;;;;;;;19.13;73.35;95969.02;619413;225;64783;-70
2022/09/28 07:20:34;;;;;;;;;;;;;;;19.13;73.43;95974.34;622514;226;65740;-68
2022/09/28 07:23:03;;;;;;;;;;;;;;;19.13;73.52;95971.69;626620;226;67017;-70
2022/09/28 07:25:34;;;;;;;;;;;;;;;19.14;73.45;95975.13;626576;225;43960;-67
2022/09/28 07:28:11;;;;;;;;;;;;;;;19.13;73.22;95974.34;618226;225;46317;-69
2022/09/28 07:30:56;;;;;;;;;;;;;;;19.15;73.33;95977.53;626323;225;45484;-70
2022/09/28 07:33:41;;;;;;;;;;;;;;;19.14;73.30;95970.59;626435;225;46523;-70
2022/09/28 07:36:10;;;;;;;;;;;;;;;19.14;73.39;95975.13;625705;226;47241;-70
2022/09/28 07:38:38;;;;;;;;;;;;;;;19.14;73.31;95972.47;626651;226;64844;-74
2022/09/28 07:41:13;;;;;;;;;;;;;;;19.15;73.26;95976.70;626578;226;67625;-70
2022/09/28 07:43:42;;;;;;;;;;;;;;;19.15;73.21;95979.38;626619;225;42201;-72
2022/09/28 07:46:13;;;;;;;;;;;;;;;19.15;72.90;95968.72;626665;226;66969;-72
2022/09/28 07:48:44;;;;;;;;;;;;;;;19.14;72.59;95970.59;626447;225;45966;-71
2022/09/28 07:51:18;;;;;;;;;;;;;;;19.14;72.63;95967.93;626549;225;42449;-72
2022/09/28 07:53:47;;;;;;;;;;;;;;;19.16;72.46;95971.11;626379;225;44313;-70
2022/09/28 07:56:26;;;;;;;;;;;;;;;19.16;72.42;95971.11;614525;230;48097;-71
2022/09/28 07:58:55;;;;;;;;;;;;;;;19.16;72.50;95971.11;626108;225;44992;-72
2022/09/28 08:01:31;;;;;;;;;;;;;;;19.16;72.66;95968.45;626761;226;48243;-72
2022/09/28 08:03:59;;;;;;;;;;;;;;;19.16;73.04;95965.78;626542;226;67003;-72
2022/09/28 08:06:30;;;;;;;;;;;;;;;19.16;72.82;95965.00;626676;226;63611;-71
2022/09/28 08:08:59;;;;;;;;;;;;;;;19.16;72.87;95965.00;626620;226;64500;-70
2022/09/28 08:11:29;;;;;;;;;;;;;;;19.17;72.93;95964.70;626078;226;44066;-71
2022/09/28 08:13:59;;;;;;;;;;;;;;;19.17;72.59;95962.03;618956;225;44187;-70
2022/09/28 08:16:37;;;;;;;;;;;;;;;19.19;72.62;95961.77;624582;225;48500;-70
2022/09/28 08:19:15;;;;;;;;;;;;;;;19.19;72.84;95967.09;624598;226;44217;-72
2022/09/28 08:21:46;;;;;;;;;;;;;;;19.20;72.74;95971.33;624735;227;62688;-69
2022/09/28 08:24:15;;;;;;;;;;;;;;;19.18;72.79;95963.64;624637;227;67511;-71
2022/09/28 08:26:43;;;;;;;;;;;;;;;19.20;72.80;95971.33;624741;227;67368;-70
2022/09/28 08:29:12;;;;;;;;;;;;;;;19.19;72.94;95965.21;624689;227;63660;-71
2022/09/28 08:31:47;;;;;;;;;;;;;;;19.20;72.96;95961.47;622555;226;48235;-70
2022/09/28 08:34:20;;;;;;;;;;;;;;;19.19;73.05;95959.89;618005;226;48120;-70
2022/09/28 08:36:58;;;;;;;;;;;;;;;19.20;73.00;95958.80;624330;226;42466;-71
2022/09/28 08:39:42;;;;;;;;;;;;;;;19.20;73.17;95958.80;613312;231;47929;-71
2022/09/28 08:42:31;;;;;;;;;;;;;;;19.20;73.15;95958.80;621888;226;49110;-69
2022/09/28 08:45:07;;;;;;;;;;;;;;;19.20;73.19;95958.80;617990;226;46318;-68
2022/09/28 08:50:58;;;;;;;;;;;;;;;19.20;73.35;95955.34;624435;226;44610;-71
2022/09/28 08:53:47;;;;;;;;;;;;;;;19.19;73.40;95959.89;613341;231;47540;-69
2022/09/28 08:56:34;;;;;;;;;;;;;;;19.20;73.49;95958.80;621235;226;45229;-69
2022/09/28 08:59:03;;;;;;;;;;;;;;;19.19;73.52;95951.89;624757;227;64565;-69
2022/09/28 09:01:33;;;;;;;;;;;;;;;19.19;73.60;95949.23;624644;227;65211;-71
2022/09/28 09:04:02;;;;;;;;;;;;;;;19.20;73.60;95950.02;624732;227;68023;-71
2022/09/28 09:06:56;;;;;;;;;;;;;;;19.20;73.63;95936.70;618891;226;49426;-71
2022/09/28 09:09:33;;;;;;;;;;;;;;;19.20;73.66;95940.16;624500;226;45914;-70
2022/09/28 09:12:02;;;;;;;;;;;;;;;19.20;73.71;95931.37;624684;227;64821;-71
2022/09/28 09:14:32;;;;;;;;;;;;;;;19.20;73.76;95920.72;624616;226;67527;-73
2022/09/28 09:17:07;;;;;;;;;;;;;;;19.20;73.82;95926.84;625598;226;65061;-71
2022/09/28 09:19:54;;;;;;;;;;;;;;;19.20;73.82;95918.06;625955;226;38798;-71
2022/09/28 09:22:31;;;;;;;;;;;;;;;19.20;73.87;95924.17;625554;226;45225;-71
2022/09/28 09:25:07;;;;;;;;;;;;;;;19.20;73.84;95913.52;625873;226;65570;-72
2022/09/28 09:27:39;;;;;;;;;;;;;;;19.20;73.90;95918.06;625793;226;66607;-71
2022/09/28 09:30:11;;;;;;;;;;;;;;;19.20;73.96;95918.84;625375;226;64752;-72
2022/09/28 09:32:43;;;;;;;;;;;;;;;19.21;73.98;95920.45;625884;224;65564;-73
2022/09/28 09:35:16;;;;;;;;;;;;;;;19.21;73.94;95920.45;625811;226;65117;-73
2022/09/28 09:38:20;;;;;;;;;;;;;;;19.22;73.98;95927.35;626056;226;39429;-73
2022/09/28 09:41:09;;;;;;;;;;;;;;;19.21;73.98;95928.44;617803;226;47538;-72
2022/09/28 09:43:54;;;;;;;;;;;;;;;19.21;74.07;95928.44;611314;231;49438;-73
2022/09/28 09:46:33;;;;;;;;;;;;;;;19.21;74.09;95936.43;625171;226;48651;-70
2022/09/28 09:49:20;;;;;;;;;;;;;;;19.22;74.10;95934.55;625938;226;39972;-73
2022/09/28 09:51:58;;;;;;;;;;;;;;;19.22;74.25;95938.01;625865;226;67865;-73
2022/09/28 09:54:37;;;;;;;;;;;;;;;19.20;74.04;95940.16;625787;225;66824;-68
2022/09/28 09:57:07;;;;;;;;;;;;;;;19.21;74.12;95946.30;625859;226;65087;-68
2022/09/28 09:59:40;;;;;;;;;;;;;;;19.20;74.08;95950.81;619317;226;48015;-70
2022/09/28 10:02:11;;;;;;;;;;;;;;;19.21;74.16;95947.09;625563;226;44876;-69
2022/09/28 10:04:43;;;;;;;;;;;;;;;19.21;74.25;95943.64;624622;226;47321;-70
2022/09/28 10:07:17;;;;;;;;;;;;;;;19.21;74.14;95956.95;625625;226;45028;-69
2022/09/28 10:09:46;;;;;;;;;;;;;;;19.22;74.12;95953.20;618698;228;64736;-70
2022/09/28 10:12:17;;;;;;;;;;;;;;;19.21;74.13;95955.08;618587;228;46057;-70
2022/09/28 10:14:45;;;;;;;;;;;;;;;19.21;74.08;95957.73;618765;229;64807;-72
2022/09/28 10:17:15;;;;;;;;;;;;;;;19.21;74.05;95957.73;618663;229;64056;-70
2022/09/28 10:19:55;;;;;;;;;;;;;;;19.22;74.09;95959.31;617985;229;45049;-70
2022/09/28 10:22:34;;;;;;;;;;;;;;;19.22;74.01;95959.31;618819;229;48320;-70
2022/09/28 10:25:05;;;;;;;;;;;;;;;19.22;74.05;95956.65;618851;228;43661;-69
2022/09/28 10:27:34;;;;;;;;;;;;;;;19.22;74.07;95950.54;618759;229;65694;-70
2022/09/28 10:30:03;;;;;;;;;;;;;;;19.23;74.01;95954.77;618711;227;67207;-71
2022/09/28 10:32:38;;;;;;;;;;;;;;;19.23;74.03;95960.10;618720;229;66954;-72
2022/09/28 10:35:13;;;;;;;;;;;;;;;19.23;74.03;95955.59;618753;229;62748;-71
2022/09/28 10:37:50;;;;;;;;;;;;;;;19.23;74.04;95947.60;618761;229;67550;-72
2022/09/28 10:40:28;;;;;;;;;;;;;;;19.24;74.20;95957.17;618890;228;48158;-72
2022/09/28 10:43:03;;;;;;;;;;;;;;;19.23;73.94;95955.59;618850;229;62898;-73
2022/09/28 10:45:32;;;;;;;;;;;;;;;19.24;74.31;95953.72;618649;229;66975;-73
2022/09/28 10:48:00;;;;;;;;;;;;;;;19.24;74.17;95959.83;618773;229;66639;-73
2022/09/28 10:50:28;;;;;;;;;;;;;;;19.25;74.10;95956.08;618761;229;62829;-73
2022/09/28 10:53:19;;;;;;;;;;;;;;;19.25;74.19;95957.95;618614;228;49468;-73
2022/09/28 10:56:06;;;;;;;;;;;;;;;19.24;74.05;95945.72;618934;228;45280;-74
2022/09/28 10:58:43;;;;;;;;;;;;;;;19.25;74.07;95949.97;618807;229;63124;-73
2022/09/28 11:01:17;;;;;;;;;;;;;;;19.24;74.14;95946.52;618635;228;45420;-73
2022/09/28 11:03:52;;;;;;;;;;;;;;;19.25;74.08;95944.64;618765;228;66787;-74
2022/09/28 11:06:23;;;;;;;;;;;;;;;19.24;74.17;95938.52;618698;228;65142;-74
2022/09/28 11:08:53;;;;;;;;;;;;;;;19.24;74.14;95937.73;618685;229;67234;-73
2022/09/28 11:11:23;;;;;;;;;;;;;;;19.25;74.11;95933.98;618699;228;70558;-73
2022/09/28 11:13:54;;;;;;;;;;;;;;;19.25;74.06;95925.99;618859;228;43050;-73
2022/09/28 11:16:28;;;;;;;;;;;;;;;19.25;74.14;95940.09;618587;228;44388;-73
2022/09/28 11:18:57;;;;;;;;;;;;;;;19.25;74.18;95934.77;618727;229;66681;-73
2022/09/28 11:21:26;;;;;;;;;;;;;;;19.26;74.20;95932.89;618680;229;62907;-73
2022/09/28 11:24:06;;;;;;;;;;;;;;;19.26;74.22;95925.72;618699;228;44369;-74
2022/09/28 11:26:37;;;;;;;;;;;;;;;19.27;74.26;95918.52;618816;228;45778;-73
2022/09/28 11:29:06;;;;;;;;;;;;;;;19.26;74.28;95916.91;618732;229;65146;-73
2022/09/28 11:31:36;;;;;;;;;;;;;;;19.26;74.24;95916.91;618737;228;48879;-74
2022/09/28 11:34:16;;;;;;;;;;;;;;;19.26;74.31;95909.73;618817;228;43745;-74
2022/09/28 11:37:03;;;;;;;;;;;;;;;19.27;74.36;95907.86;618318;228;48650;-73
2022/09/28 11:39:32;;;;;;;;;;;;;;;19.25;74.49;95900.14;618779;229;66945;-73
2022/09/28 11:42:03;;;;;;;;;;;;;;;19.26;74.30;95907.07;618701;229;67479;-76
2022/09/28 11:44:43;;;;;;;;;;;;;;;19.27;74.40;95907.86;618629;228;42962;-72
2022/09/28 11:47:28;;;;;;;;;;;;;;;19.26;74.32;95907.07;618807;228;45935;-72
2022/09/28 11:50:03;;;;;;;;;;;;;;;19.26;74.32;95903.59;618748;229;64359;-73
2022/09/28 11:52:32;;;;;;;;;;;;;;;19.27;74.38;95907.86;618749;229;65555;-71
2022/09/28 11:55:19;;;;;;;;;;;;;;;19.27;74.35;95905.20;618627;228;66966;-72
2022/09/28 11:57:48;;;;;;;;;;;;;;;19.26;74.42;95907.07;618607;228;66915;-76
2022/09/28 12:00:17;;;;;;;;;;;;;;;19.26;74.47;95904.41;618610;228;64932;-71
2022/09/28 12:02:47;;;;;;;;;;;;;;;19.26;74.51;95899.08;618697;229;64042;-71
2022/09/28 12:05:19;;;;;;;;;;;;;;;19.27;74.48;95894.55;618712;228;72433;-72
2022/09/28 12:07:49;;;;;;;;;;;;;;;19.25;74.52;95889.48;618652;228;65625;-70
2022/09/28 12:10:20;;;;;;;;;;;;;;;19.27;74.55;95891.88;608944;228;48237;-71
2022/09/28 12:12:53;;;;;;;;;;;;;;;19.27;74.42;95891.88;618699;229;67761;-71
2022/09/28 12:15:31;;;;;;;;;;;;;;;19.26;74.46;95880.44;618250;228;62845;-71
2022/09/28 12:18:00;;;;;;;;;;;;;;;19.27;74.49;95886.55;616190;228;65806;-70
2022/09/28 12:20:32;;;;;;;;;;;;;;;19.27;74.49;95884.67;617513;228;67800;-72
2022/09/28 12:23:01;;;;;;;;;;;;;;;19.27;74.38;95887.34;617533;229;62785;-72
2022/09/28 12:25:30;;;;;;;;;;;;;;;19.28;74.36;95882.80;617605;229;67059;-70
2022/09/28 12:27:59;;;;;;;;;;;;;;;19.28;74.34;95882.80;617553;228;66912;-71
2022/09/28 12:30:28;;;;;;;;;;;;;;;19.28;74.28;95883.58;617618;229;64954;-74
2022/09/28 12:32:57;;;;;;;;;;;;;;;19.28;74.36;95885.46;617505;228;67229;-71
2022/09/28 12:35:29;;;;;;;;;;;;;;;19.28;74.30;95885.46;617578;229;66886;-71
2022/09/28 12:37:58;;;;;;;;;;;;;;;19.28;74.20;95883.58;617378;228;64924;-69
2022/09/28 12:40:39;;;;;;;;;;;;;;;19.29;74.23;95887.06;617302;228;67111;-69
2022/09/28 12:43:21;;;;;;;;;;;;;;;19.28;74.17;95886.25;617036;229;67807;-70
2022/09/28 12:45:54;;;;;;;;;;;;;;;19.29;74.23;95881.73;617518;229;64844;-75
2022/09/28 12:48:26;;;;;;;;;;;;;;;19.30;74.33;95886.77;616934;229;64543;-70
2022/09/28 12:50:58;;;;;;;;;;;;;;;19.32;74.31;95891.81;617653;229;64582;-71
2022/09/28 12:53:43;;;;;;;;;;;;;;;19.32;73.96;95888.36;617424;228;64906;-70
2022/09/28 12:56:14;;;;;;;;;;;;;;;19.32;73.98;95888.36;617571;229;65057;-70
2022/09/28 12:58:47;;;;;;;;;;;;;;;19.33;74.10;95885.40;617610;229;65331;-72
2022/09/28 13:01:25;;;;;;;;;;;;;;;19.33;74.03;95884.61;617437;228;65166;-73
2022/09/28 13:04:10;;;;;;;;;;;;;;;19.33;73.98;95895.27;617621;229;67059;-72
2022/09/28 13:06:46;;;;;;;;;;;;;;;19.32;73.87;95889.16;617606;229;67775;-72
2022/09/28 13:09:15;;;;;;;;;;;;;;;19.33;74.10;95889.94;617615;229;65101;-71
2022/09/28 13:11:44;;;;;;;;;;;;;;;19.36;74.18;95895.48;617500;227;67005;-71
2022/09/28 13:14:20;;;;;;;;;;;;;;;19.35;74.31;95885.13;613306;229;64881;-73
2022/09/28 13:17:00;;;;;;;;;;;;;;;19.34;74.28;95881.64;617442;229;65170;-72
2022/09/28 13:19:30;;;;;;;;;;;;;;;19.38;74.03;95877.34;617547;228;64509;-70
2022/09/28 13:21:59;;;;;;;;;;;;;;;19.36;73.81;95884.81;617602;229;64835;-68